createdAt,value
2019-05-23T00:02:05.680Z,12.50
2019-05-23T00:04:21.008Z,12.50
2019-05-23T00:06:28.966Z,12.47
2019-05-23T00:08:38.128Z,12.45
2019-05-23T00:10:53.839Z,12.42
2019-05-23T00:13:04.488Z,12.34
2019-05-23T00:15:20.914Z,12.34
2019-05-23T00:17:29.886Z,12.35
2019-05-23T00:19:38.545Z,12.37
2019-05-23T00:21:46.422Z,12.43
2019-05-23T00:23:54.927Z,12.39
2019-05-23T00:26:04.872Z,12.33
2019-05-23T00:28:13.124Z,12.32
2019-05-23T00:30:30.114Z,12.35
2019-05-23T00:32:43.544Z,12.37
2019-05-23T00:34:53.646Z,12.35
2019-05-23T00:37:02.582Z,12.34
2019-05-23T00:39:11.935Z,12.32
2019-05-23T00:41:21.376Z,12.26
2019-05-23T00:43:31.114Z,12.25
2019-05-23T00:45:39.311Z,12.31
2019-05-23T00:47:48.029Z,12.31
2019-05-23T00:49:56.207Z,12.29
2019-05-23T00:52:03.849Z,12.31
2019-05-23T00:54:11.531Z,12.32
2019-05-23T00:56:20.639Z,12.36
2019-05-23T00:58:30.052Z,12.33
2019-05-23T01:00:39.686Z,12.31
2019-05-23T01:02:48.113Z,12.28
2019-05-23T01:04:56.267Z,12.27
2019-05-23T01:07:04.216Z,12.30
2019-05-23T01:09:13.497Z,12.35
2019-05-23T01:11:21.765Z,12.33
2019-05-23T01:13:30.134Z,12.33
2019-05-23T01:15:39.922Z,12.36
2019-05-23T01:17:48.936Z,12.38
2019-05-23T01:19:57.126Z,12.44
2019-05-23T01:22:07.980Z,12.45
2019-05-23T01:24:22.593Z,12.51
2019-05-23T01:26:30.341Z,12.51
2019-05-23T01:28:37.832Z,12.45
2019-05-23T01:30:47.973Z,12.46
2019-05-23T01:32:57.521Z,12.52
2019-05-23T01:35:07.469Z,12.55
2019-05-23T01:37:15.989Z,12.58
2019-05-23T01:39:23.424Z,12.56
2019-05-23T01:41:31.975Z,12.55
2019-05-23T01:43:40.138Z,12.57
2019-05-23T01:45:48.349Z,12.61
2019-05-23T01:47:56.379Z,12.58
2019-05-23T01:50:04.779Z,12.63
2019-05-23T01:52:13.565Z,12.64
2019-05-23T01:54:22.387Z,12.66
2019-05-23T01:56:30.737Z,12.66
2019-05-23T01:58:38.578Z,12.62
2019-05-23T02:00:47.563Z,12.63
2019-05-23T02:02:56.179Z,12.65
2019-05-23T02:05:04.857Z,12.63
2019-05-23T02:07:13.964Z,12.63
2019-05-23T02:09:21.505Z,12.61
2019-05-23T02:11:30.133Z,12.64
2019-05-23T02:13:38.035Z,12.63
2019-05-23T02:15:45.921Z,12.60
2019-05-23T02:17:54.277Z,12.60
2019-05-23T02:20:02.589Z,12.62
2019-05-23T02:22:10.763Z,12.62
2019-05-23T02:24:18.635Z,12.63
2019-05-23T02:26:26.991Z,12.70
2019-05-23T02:28:36.024Z,12.69
2019-05-23T02:30:44.018Z,12.71
2019-05-23T02:32:53.027Z,12.68
2019-05-23T02:35:00.551Z,12.72
2019-05-23T02:37:17.188Z,12.76
2019-05-23T02:39:42.499Z,12.75
2019-05-23T02:42:08.694Z,12.76
2019-05-23T02:44:23.766Z,12.73
2019-05-23T02:46:38.467Z,12.72
2019-05-23T02:48:48.657Z,12.78
2019-05-23T02:51:02.834Z,12.82
2019-05-23T02:53:15.091Z,12.87
2019-05-23T02:55:36.153Z,12.86
2019-05-23T02:57:47.148Z,12.91
2019-05-23T03:00:01.235Z,12.92
2019-05-23T03:03:02.689Z,12.92
2019-05-23T03:05:14.231Z,12.89
2019-05-23T03:07:26.870Z,12.92
2019-05-23T03:09:39.406Z,12.90
2019-05-23T03:11:49.293Z,12.93
2019-05-23T03:13:58.047Z,12.91
2019-05-23T03:16:07.938Z,12.99
2019-05-23T03:18:18.067Z,13.00
2019-05-23T03:20:26.695Z,13.02
2019-05-23T03:22:49.141Z,13.02
2019-05-23T03:24:59.794Z,13.05
2019-05-23T03:27:15.495Z,13.06
2019-05-23T03:29:23.892Z,13.10
2019-05-23T03:31:37.113Z,13.12
2019-05-23T03:33:46.009Z,13.14
2019-05-23T03:35:57.080Z,13.15
2019-05-23T03:38:05.672Z,13.12
2019-05-23T03:40:15.397Z,13.15
2019-05-23T03:42:23.921Z,13.15
2019-05-23T03:44:31.689Z,13.18
2019-05-23T03:46:44.757Z,13.17
2019-05-23T03:48:53.321Z,13.18
2019-05-23T03:51:03.039Z,13.25
2019-05-23T03:53:10.955Z,13.24
2019-05-23T03:55:20.057Z,13.26
2019-05-23T03:57:28.708Z,13.27
2019-05-23T03:59:36.242Z,13.28
2019-05-23T04:01:49.022Z,13.29
2019-05-23T04:03:58.903Z,13.25
2019-05-23T04:06:07.119Z,13.33
2019-05-23T04:08:15.534Z,13.36
2019-05-23T04:10:23.828Z,13.34
2019-05-23T04:12:31.640Z,13.37
2019-05-23T04:14:39.566Z,13.41
2019-05-23T04:16:47.949Z,13.42
2019-05-23T04:18:55.413Z,13.37
2019-05-23T04:21:03.396Z,13.48
2019-05-23T04:23:11.326Z,13.45
2019-05-23T04:25:19.425Z,13.49
2019-05-23T04:27:27.615Z,13.55
2019-05-23T04:29:35.147Z,13.55
2019-05-23T04:31:42.942Z,13.57
2019-05-23T04:33:50.699Z,13.62
2019-05-23T04:35:58.110Z,13.68
2019-05-23T04:38:06.131Z,13.70
2019-05-23T04:40:15.772Z,13.73
2019-05-23T04:42:23.844Z,13.72
2019-05-23T04:44:31.474Z,13.83
2019-05-23T04:46:39.165Z,13.83
2019-05-23T04:48:46.784Z,13.85
2019-05-23T04:50:54.423Z,13.90
2019-05-23T04:53:02.515Z,13.95
2019-05-23T04:55:12.184Z,13.96
2019-05-23T04:57:21.123Z,13.91
2019-05-23T04:59:28.958Z,13.95
2019-05-23T05:01:37.467Z,13.97
2019-05-23T05:03:47.098Z,13.99
2019-05-23T05:05:54.932Z,14.04
2019-05-23T05:08:02.509Z,14.07
2019-05-23T05:10:13.468Z,14.03
2019-05-23T05:12:22.624Z,14.10
2019-05-23T05:14:30.379Z,14.16
2019-05-23T05:16:37.991Z,14.17
2019-05-23T05:18:45.443Z,14.22
2019-05-23T05:20:53.121Z,14.28
2019-05-23T05:23:01.017Z,14.27
2019-05-23T05:25:10.837Z,14.37
2019-05-23T05:27:19.769Z,14.40
2019-05-23T05:29:27.630Z,14.47
2019-05-23T05:31:35.020Z,14.53
2019-05-23T05:33:42.702Z,14.53
2019-05-23T05:35:50.578Z,14.59
2019-05-23T05:37:58.602Z,14.63
2019-05-23T05:40:07.506Z,14.75
2019-05-23T05:42:15.090Z,14.84
2019-05-23T05:44:22.674Z,14.84
2019-05-23T05:46:30.820Z,14.86
2019-05-23T05:48:38.516Z,14.89
2019-05-23T05:50:46.211Z,14.85
2019-05-23T05:52:54.128Z,14.92
2019-05-23T05:55:01.916Z,14.91
2019-05-23T05:57:09.937Z,14.87
2019-05-23T05:59:17.728Z,14.88
2019-05-23T06:01:33.948Z,14.90
2019-05-23T06:03:34.857Z,14.85
2019-05-23T06:05:58.704Z,14.87
2019-05-23T06:08:08.164Z,14.95
2019-05-23T06:10:17.205Z,14.94
2019-05-23T06:12:25.472Z,14.99
2019-05-23T06:14:33.328Z,15.09
2019-05-23T06:16:43.129Z,15.20
2019-05-23T06:18:50.730Z,15.29
2019-05-23T06:20:59.583Z,15.33
2019-05-23T06:23:07.019Z,15.48
2019-05-23T06:25:15.176Z,15.58
2019-05-23T06:27:23.238Z,15.81
2019-05-23T06:29:30.887Z,15.94
2019-05-23T06:31:39.276Z,16.06
2019-05-23T06:33:47.792Z,16.03
2019-05-23T06:35:55.915Z,16.08
2019-05-23T06:38:03.441Z,16.15
2019-05-23T06:40:12.635Z,16.16
2019-05-23T06:42:20.663Z,16.11
2019-05-23T06:44:28.361Z,16.14
2019-05-23T06:46:36.126Z,16.16
2019-05-23T06:48:45.694Z,16.11
2019-05-23T06:50:52.966Z,16.11
2019-05-23T06:53:01.224Z,16.09
2019-05-23T06:55:09.209Z,16.16
2019-05-23T06:57:17.922Z,16.15
2019-05-23T06:59:25.532Z,16.12
2019-05-23T07:01:33.580Z,16.13
2019-05-23T07:03:43.641Z,16.20
2019-05-23T07:05:51.229Z,16.27
2019-05-23T07:07:58.892Z,16.35
2019-05-23T07:10:08.661Z,16.37
2019-05-23T07:12:16.768Z,16.37
2019-05-23T07:14:24.595Z,16.48
2019-05-23T07:16:32.106Z,16.50
2019-05-23T07:18:40.863Z,16.50
2019-05-23T07:20:48.418Z,16.43
2019-05-23T07:22:56.078Z,16.35
2019-05-23T07:25:03.829Z,16.30
2019-05-23T07:27:11.818Z,16.26
2019-05-23T07:29:20.017Z,16.23
2019-05-23T07:31:27.554Z,16.19
2019-05-23T07:33:35.180Z,16.22
2019-05-23T07:35:42.940Z,16.35
2019-05-23T07:37:50.739Z,16.45
2019-05-23T07:39:58.553Z,16.58
2019-05-23T07:42:06.630Z,16.64
2019-05-23T07:44:14.635Z,16.70
2019-05-23T07:46:22.307Z,16.71
2019-05-23T07:48:30.987Z,16.68
2019-05-23T07:50:38.409Z,16.71
2019-05-23T07:52:46.475Z,16.74
2019-05-23T07:55:08.393Z,16.72
2019-05-23T07:57:16.765Z,16.64
2019-05-23T07:59:24.560Z,16.66
2019-05-23T08:01:34.230Z,16.66
2019-05-23T08:03:42.072Z,16.58
2019-05-23T08:05:49.616Z,16.54
2019-05-23T08:07:57.697Z,16.54
2019-05-23T08:10:06.981Z,16.53
2019-05-23T08:12:14.903Z,16.52
2019-05-23T08:14:22.961Z,16.53
2019-05-23T08:16:30.989Z,16.53
2019-05-23T08:18:39.391Z,16.55
2019-05-23T08:20:48.512Z,16.56
2019-05-23T08:22:56.085Z,16.59
2019-05-23T08:25:03.826Z,16.60
2019-05-23T08:27:12.289Z,16.59
2019-05-23T08:29:27.692Z,16.55
2019-05-23T08:31:29.876Z,16.55
2019-05-23T08:33:38.224Z,16.57
2019-05-23T08:35:46.587Z,16.54
2019-05-23T08:37:55.043Z,16.60
2019-05-23T08:40:03.152Z,16.62
2019-05-23T08:42:10.708Z,16.58
2019-05-23T08:44:19.039Z,16.63
2019-05-23T08:46:27.003Z,16.66
2019-05-23T08:48:34.978Z,16.65
2019-05-23T08:50:42.586Z,16.70
2019-05-23T08:52:50.300Z,16.69
2019-05-23T08:55:03.414Z,16.74
2019-05-23T08:57:13.020Z,16.88
2019-05-23T08:59:20.785Z,16.97
2019-05-23T09:01:29.224Z,17.05
2019-05-23T09:03:37.522Z,17.06
2019-05-23T09:05:47.282Z,17.14
2019-05-23T09:07:56.034Z,17.17
2019-05-23T09:10:04.460Z,17.23
2019-05-23T09:12:12.437Z,17.26
2019-05-23T09:14:20.726Z,17.33
2019-05-23T09:16:28.454Z,17.37
2019-05-23T09:18:36.095Z,17.39
2019-05-23T09:20:43.746Z,17.42
2019-05-23T09:22:51.817Z,17.42
2019-05-23T09:24:59.314Z,17.38
2019-05-23T09:27:07.702Z,17.34
2019-05-23T09:29:15.471Z,17.31
2019-05-23T09:31:24.700Z,17.24
2019-05-23T09:33:32.447Z,17.24
2019-05-23T09:35:40.424Z,17.16
2019-05-23T09:37:49.257Z,17.08
2019-05-23T09:39:57.698Z,17.03
2019-05-23T09:42:05.657Z,17.02
2019-05-23T09:44:13.457Z,16.98
2019-05-23T09:46:21.400Z,16.98
2019-05-23T09:48:29.728Z,17.02
2019-05-23T09:50:37.452Z,17.01
2019-05-23T09:52:45.207Z,17.00
2019-05-23T09:54:52.679Z,17.15
2019-05-23T09:57:00.470Z,17.22
2019-05-23T09:59:09.040Z,17.29
2019-05-23T10:01:18.993Z,17.32
2019-05-23T10:03:26.606Z,17.36
2019-05-23T10:05:42.892Z,17.34
2019-05-23T10:07:43.518Z,17.30
2019-05-23T10:09:51.336Z,17.32
2019-05-23T10:11:59.154Z,17.50
2019-05-23T10:14:11.239Z,17.50
2019-05-23T10:16:19.116Z,17.56
2019-05-23T10:18:26.685Z,17.68
2019-05-23T10:20:36.159Z,17.84
2019-05-23T10:22:43.673Z,17.99
2019-05-23T10:24:51.571Z,17.89
2019-05-23T10:26:59.359Z,18.04
2019-05-23T10:29:07.171Z,18.03
2019-05-23T10:31:15.477Z,17.98
2019-05-23T10:33:23.086Z,18.00
2019-05-23T10:35:31.597Z,17.97
2019-05-23T10:37:39.145Z,17.95
2019-05-23T10:39:53.752Z,17.78
2019-05-23T10:42:01.367Z,17.69
2019-05-23T10:44:09.417Z,17.64
2019-05-23T10:46:17.170Z,17.62
2019-05-23T10:48:25.723Z,17.52
2019-05-23T10:50:44.317Z,17.48
2019-05-23T10:52:42.918Z,17.46
2019-05-23T10:54:50.456Z,17.36
2019-05-23T10:56:58.126Z,17.22
2019-05-23T10:59:06.920Z,17.23
2019-05-23T11:01:15.278Z,17.21
2019-05-23T11:03:24.239Z,17.17
2019-05-23T11:05:31.963Z,17.12
2019-05-23T11:07:40.163Z,17.13
2019-05-23T11:09:48.040Z,17.02
2019-05-23T11:11:55.842Z,17.05
2019-05-23T11:14:08.247Z,16.97
2019-05-23T11:16:13.631Z,16.97
2019-05-23T11:18:21.785Z,17.02
2019-05-23T11:20:29.612Z,17.02
2019-05-23T11:22:37.258Z,16.92
2019-05-23T11:24:44.961Z,16.89
2019-05-23T11:26:53.073Z,16.89
2019-05-23T11:29:01.287Z,16.94
2019-05-23T11:31:10.808Z,16.98
2019-05-23T11:33:19.372Z,16.94
2019-05-23T11:35:27.607Z,16.90
2019-05-23T11:37:35.453Z,16.91
2019-05-23T11:39:49.587Z,17.04
2019-05-23T11:41:52.873Z,17.12
2019-05-23T11:44:00.638Z,17.07
2019-05-23T11:46:21.684Z,16.98
2019-05-23T11:48:30.106Z,17.04
2019-05-23T11:50:37.526Z,17.10
2019-05-23T11:52:45.321Z,17.03
2019-05-23T11:54:53.388Z,17.04
2019-05-23T11:57:01.623Z,17.03
2019-05-23T11:59:09.353Z,17.08
2019-05-23T12:01:22.454Z,16.98
2019-05-23T12:03:30.376Z,16.86
2019-05-23T12:05:38.106Z,16.75
2019-05-23T12:07:47.096Z,16.74
2019-05-23T12:09:54.825Z,16.60
2019-05-23T12:12:02.736Z,16.49
2019-05-23T12:14:11.586Z,16.38
2019-05-23T12:16:21.867Z,16.26
2019-05-23T12:18:29.653Z,16.35
2019-05-23T12:20:37.134Z,16.27
2019-05-23T12:22:44.860Z,16.21
2019-05-23T12:24:52.455Z,16.24
2019-05-23T12:27:00.031Z,16.29
2019-05-23T12:29:07.872Z,16.20
2019-05-23T12:31:16.096Z,16.11
2019-05-23T12:33:23.720Z,15.97
2019-05-23T12:35:31.399Z,15.98
2019-05-23T12:37:39.130Z,15.86
2019-05-23T12:39:46.713Z,15.81
2019-05-23T12:41:54.213Z,15.63
2019-05-23T12:44:02.270Z,15.77
2019-05-23T12:46:10.167Z,15.71
2019-05-23T12:48:27.263Z,15.70
2019-05-23T12:50:41.043Z,15.69
2019-05-23T12:52:50.090Z,15.68
2019-05-23T12:54:57.538Z,15.72
2019-05-23T12:57:06.045Z,15.72
2019-05-23T12:59:14.802Z,15.67
2019-05-23T13:01:24.801Z,15.65
2019-05-23T13:03:33.461Z,15.63
2019-05-23T13:05:42.270Z,15.69
2019-05-23T13:07:50.339Z,15.67
2019-05-23T13:09:58.297Z,15.65
2019-05-23T13:12:06.334Z,15.70
2019-05-23T13:14:14.949Z,15.69
2019-05-23T13:16:22.961Z,15.72
2019-05-23T13:18:31.026Z,15.80
2019-05-23T13:20:38.991Z,15.84
2019-05-23T13:22:47.071Z,15.90
2019-05-23T13:24:54.979Z,15.97
2019-05-23T13:27:03.607Z,16.03
2019-05-23T13:29:11.735Z,16.04
2019-05-23T13:31:21.403Z,16.09
2019-05-23T13:33:29.544Z,16.08
2019-05-23T13:35:37.322Z,16.09
2019-05-23T13:37:53.799Z,16.18
2019-05-23T13:39:54.856Z,16.17
2019-05-23T13:42:02.699Z,16.17
2019-05-23T13:44:29.608Z,16.15
2019-05-23T13:46:20.602Z,16.10
2019-05-23T13:48:28.920Z,16.03
2019-05-23T13:50:37.940Z,16.02
2019-05-23T13:52:46.619Z,15.99
2019-05-23T13:54:54.563Z,15.98
2019-05-23T13:57:02.740Z,15.99
2019-05-23T13:59:11.241Z,16.09
2019-05-23T14:01:20.125Z,16.12
2019-05-23T14:03:28.368Z,16.11
2019-05-23T14:05:36.322Z,16.06
2019-05-23T14:07:44.197Z,16.04
2019-05-23T14:09:52.350Z,15.97
2019-05-23T14:12:20.090Z,15.98
2019-05-23T14:14:11.684Z,15.98
2019-05-23T14:16:19.689Z,15.98
2019-05-23T14:18:28.645Z,15.96
2019-05-23T14:20:36.569Z,15.94
2019-05-23T14:22:49.492Z,15.93
2019-05-23T14:24:58.485Z,15.92
2019-05-23T14:27:16.928Z,15.90
2019-05-23T14:29:24.766Z,15.94
2019-05-23T14:31:38.534Z,15.94
2019-05-23T14:34:11.414Z,15.87
2019-05-23T14:36:35.992Z,15.84
2019-05-23T14:38:44.902Z,15.82
2019-05-23T14:40:53.058Z,15.82
2019-05-23T14:43:12.580Z,15.82
2019-05-23T14:45:42.626Z,15.80
2019-05-23T14:48:11.711Z,15.79
2019-05-23T14:50:34.361Z,15.75
2019-05-23T14:52:44.070Z,15.74
2019-05-23T14:54:56.257Z,15.73
2019-05-23T14:57:05.586Z,15.71
2019-05-23T14:59:13.492Z,15.71
2019-05-23T15:01:21.408Z,15.74
2019-05-23T15:03:30.263Z,15.74
2019-05-23T15:05:39.725Z,15.73
2019-05-23T15:07:47.337Z,15.73
2019-05-23T15:09:55.193Z,15.74
2019-05-23T15:12:02.910Z,15.75
2019-05-23T15:14:10.778Z,15.74
2019-05-23T15:16:21.116Z,15.74
2019-05-23T15:18:28.739Z,15.73
2019-05-23T15:20:36.262Z,15.75
2019-05-23T15:22:44.057Z,15.75
2019-05-23T15:24:51.745Z,15.76
2019-05-23T15:26:59.539Z,15.75
2019-05-23T15:29:10.227Z,15.73
2019-05-23T15:31:18.326Z,15.68
2019-05-23T15:33:26.126Z,15.69
2019-05-23T15:35:34.884Z,15.66
2019-05-23T15:37:42.853Z,15.64
2019-05-23T15:39:50.867Z,15.58
2019-05-23T15:41:58.341Z,15.57
2019-05-23T15:44:22.696Z,15.59
2019-05-23T15:46:15.971Z,15.59
2019-05-23T15:48:23.757Z,15.59
2019-05-23T15:50:37.786Z,15.60
2019-05-23T15:53:10.422Z,15.59
2019-05-23T15:55:36.650Z,15.57
2019-05-23T15:57:49.413Z,15.57
2019-05-23T16:00:15.921Z,15.53
2019-05-23T16:02:28.190Z,15.54
2019-05-23T16:04:36.965Z,15.49
2019-05-23T16:06:45.116Z,15.46
2019-05-23T16:09:25.611Z,15.44
2019-05-23T16:11:19.781Z,15.43
2019-05-23T16:13:29.408Z,15.41
2019-05-23T16:15:37.388Z,15.40
2019-05-23T16:17:45.478Z,15.38
2019-05-23T16:19:53.617Z,15.40
2019-05-23T16:22:01.530Z,15.39
2019-05-23T16:24:09.898Z,15.40
2019-05-23T16:26:18.285Z,15.38
2019-05-23T16:28:26.140Z,15.37
2019-05-23T16:30:34.611Z,15.37
2019-05-23T16:32:42.241Z,15.39
2019-05-23T16:34:49.999Z,15.41
2019-05-23T16:36:57.873Z,15.36
2019-05-23T16:39:08.181Z,15.39
2019-05-23T16:41:16.230Z,15.35
2019-05-23T16:43:23.935Z,15.34
2019-05-23T16:45:32.224Z,15.34
2019-05-23T16:47:39.852Z,15.33
2019-05-23T16:49:47.892Z,15.28
2019-05-23T16:51:56.046Z,15.25
2019-05-23T16:54:05.255Z,15.24
2019-05-23T16:56:21.582Z,15.22
2019-05-23T16:58:49.344Z,15.21
2019-05-23T17:01:24.053Z,15.22
2019-05-23T17:03:38.362Z,15.22
2019-05-23T17:06:07.478Z,15.20
2019-05-23T17:08:31.308Z,15.20
2019-05-23T17:11:02.086Z,15.19
2019-05-23T17:13:34.574Z,15.22
2019-05-23T17:16:07.268Z,15.20
2019-05-23T17:18:39.613Z,15.18
2019-05-23T17:20:58.934Z,15.15
2019-05-23T17:23:16.569Z,15.12
2019-05-23T17:25:46.941Z,15.13
2019-05-23T17:28:13.481Z,15.17
2019-05-23T17:30:47.363Z,15.14
2019-05-23T17:32:56.738Z,15.13
2019-05-23T17:35:05.147Z,15.12
2019-05-23T17:37:14.584Z,15.12
2019-05-23T17:39:24.182Z,15.12
2019-05-23T17:41:32.347Z,15.12
2019-05-23T17:43:40.032Z,15.10
2019-05-23T17:45:48.438Z,15.16
2019-05-23T17:47:58.208Z,15.12
2019-05-23T17:50:09.360Z,15.14
2019-05-23T17:52:18.149Z,15.12
2019-05-23T17:54:26.514Z,15.13
2019-05-23T17:56:34.036Z,15.13
2019-05-23T17:58:42.153Z,15.13
2019-05-23T18:00:51.094Z,15.14
2019-05-23T18:02:59.297Z,15.12
2019-05-23T18:05:08.511Z,15.11
2019-05-23T18:07:17.834Z,15.10
2019-05-23T18:09:25.973Z,15.10
2019-05-23T18:11:35.428Z,15.11
2019-05-23T18:13:46.060Z,15.03
2019-05-23T18:15:56.049Z,15.03
2019-05-23T18:18:04.526Z,14.95
2019-05-23T18:20:14.474Z,14.91
2019-05-23T18:22:22.774Z,14.95
2019-05-23T18:24:31.702Z,14.90
2019-05-23T18:26:39.500Z,14.87
2019-05-23T18:28:47.621Z,14.85
2019-05-23T18:31:07.412Z,14.86
2019-05-23T18:33:13.527Z,14.90
2019-05-23T18:35:21.797Z,14.88
2019-05-23T18:37:29.984Z,14.84
2019-05-23T18:39:38.598Z,14.84
2019-05-23T18:41:48.043Z,14.87
2019-05-23T18:43:57.072Z,14.80
2019-05-23T18:46:08.915Z,14.87
2019-05-23T18:48:16.865Z,14.80
2019-05-23T18:50:25.611Z,14.77
2019-05-23T18:52:34.337Z,14.83
2019-05-23T18:54:42.665Z,14.77
2019-05-23T18:56:51.258Z,14.75
2019-05-23T18:58:59.824Z,14.79
2019-05-23T19:01:35.511Z,14.81
2019-05-23T19:03:44.735Z,14.81
2019-05-23T19:05:53.031Z,14.83
2019-05-23T19:08:01.609Z,14.76
2019-05-23T19:10:10.396Z,14.74
2019-05-23T19:12:18.702Z,14.77
2019-05-23T19:14:27.594Z,14.72
2019-05-23T19:16:37.062Z,14.68
2019-05-23T19:18:45.677Z,14.67
2019-05-23T19:20:55.569Z,14.70
2019-05-23T19:23:03.932Z,14.67
2019-05-23T19:25:13.140Z,14.66
2019-05-23T19:27:21.224Z,14.62
2019-05-23T19:29:29.465Z,14.65
2019-05-23T19:31:38.039Z,14.68
2019-05-23T19:33:49.358Z,14.70
2019-05-23T19:35:58.939Z,14.72
2019-05-23T19:38:07.111Z,14.71
2019-05-23T19:40:16.947Z,14.73
2019-05-23T19:42:25.215Z,14.70
2019-05-23T19:44:33.500Z,14.69
2019-05-23T19:46:42.389Z,14.70
2019-05-23T19:48:51.153Z,14.67
2019-05-23T19:50:58.972Z,14.73
2019-05-23T19:53:07.391Z,14.72
2019-05-23T19:55:15.916Z,14.68
2019-05-23T19:57:24.074Z,14.66
2019-05-23T19:59:34.757Z,14.63
2019-05-23T20:02:01.314Z,14.64
2019-05-23T20:04:10.556Z,14.66
2019-05-23T20:06:19.098Z,14.63
2019-05-23T20:08:27.373Z,14.62
2019-05-23T20:10:36.847Z,14.58
2019-05-23T20:12:45.106Z,14.61
2019-05-23T20:14:53.113Z,14.59
2019-05-23T20:17:01.156Z,14.59
2019-05-23T20:19:09.786Z,14.56
2019-05-23T20:21:18.677Z,14.55
2019-05-23T20:23:26.609Z,14.55
2019-05-23T20:25:34.709Z,14.57
2019-05-23T20:27:42.896Z,14.62
2019-05-23T20:29:51.289Z,14.58
2019-05-23T20:31:58.954Z,14.63
2019-05-23T20:34:07.786Z,14.56
2019-05-23T20:36:17.868Z,14.49
2019-05-23T20:38:26.728Z,14.50
2019-05-23T20:40:35.720Z,14.54
2019-05-23T20:42:43.937Z,14.56
2019-05-23T20:44:51.969Z,14.52
2019-05-23T20:46:59.890Z,14.54
2019-05-23T20:49:08.876Z,14.49
2019-05-23T20:51:17.060Z,14.50
2019-05-23T20:53:25.288Z,14.51
2019-05-23T20:55:33.598Z,14.51
2019-05-23T20:57:41.282Z,14.58
2019-05-23T20:59:49.185Z,14.55
2019-05-23T21:01:56.782Z,14.58
2019-05-23T21:04:06.018Z,14.55
2019-05-23T21:06:15.204Z,14.58
2019-05-23T21:08:23.556Z,14.61
2019-05-23T21:10:50.190Z,14.57
2019-05-23T21:12:57.721Z,14.66
2019-05-23T21:15:05.636Z,14.64
2019-05-23T21:17:13.550Z,14.65
2019-05-23T21:19:21.044Z,14.61
2019-05-23T21:21:28.696Z,14.57
2019-05-23T21:23:36.927Z,14.53
2019-05-23T21:26:01.333Z,14.49
2019-05-23T21:28:09.559Z,14.42
2019-05-23T21:30:17.541Z,14.31
2019-05-23T21:32:25.336Z,14.36
2019-05-23T21:34:33.438Z,14.40
2019-05-23T21:36:40.920Z,14.36
2019-05-23T21:38:48.726Z,14.39
2019-05-23T21:40:56.511Z,14.40
2019-05-23T21:43:04.840Z,14.30
2019-05-23T21:45:13.289Z,14.32
2019-05-23T21:47:20.825Z,14.34
2019-05-23T21:49:29.269Z,14.30
2019-05-23T21:51:37.002Z,14.21
2019-05-23T21:53:44.481Z,14.21
2019-05-23T21:55:52.419Z,14.22
2019-05-23T21:58:00.302Z,14.16
2019-05-23T22:00:12.263Z,14.18
2019-05-23T22:02:26.730Z,14.12
2019-05-23T22:05:03.052Z,14.01
2019-05-23T22:07:10.782Z,14.03
2019-05-23T22:09:18.553Z,13.93
2019-05-23T22:11:27.432Z,13.94
2019-05-23T22:13:35.173Z,13.90
2019-05-23T22:15:42.764Z,13.79
2019-05-23T22:17:50.906Z,13.87
2019-05-23T22:19:58.594Z,13.89
2019-05-23T22:22:07.117Z,13.87
2019-05-23T22:24:15.052Z,13.87
2019-05-23T22:26:22.718Z,13.89
2019-05-23T22:28:30.436Z,13.95
2019-05-23T22:30:38.159Z,13.87
2019-05-23T22:32:46.522Z,13.87
2019-05-23T22:35:06.514Z,13.82
2019-05-23T22:37:20.462Z,13.74
2019-05-23T22:39:28.412Z,13.67
2019-05-23T22:41:37.056Z,13.84
2019-05-23T22:43:44.798Z,13.69
2019-05-23T22:45:53.067Z,13.65
2019-05-23T22:48:01.097Z,13.63
2019-05-23T22:50:08.962Z,13.56
2019-05-23T22:52:16.541Z,13.61
2019-05-23T22:54:24.243Z,13.53
2019-05-23T22:56:31.836Z,13.68
2019-05-23T22:58:39.476Z,13.67
2019-05-23T23:00:48.700Z,13.72
2019-05-23T23:02:56.256Z,13.58
2019-05-23T23:05:03.727Z,13.53
2019-05-23T23:07:11.532Z,13.42
2019-05-23T23:09:19.438Z,13.54
2019-05-23T23:11:27.017Z,13.53
2019-05-23T23:13:38.705Z,13.47
2019-05-23T23:15:44.353Z,13.47
2019-05-23T23:17:52.265Z,13.38
2019-05-23T23:19:59.722Z,13.50
2019-05-23T23:22:10.394Z,13.43
2019-05-23T23:24:17.938Z,13.46
2019-05-23T23:26:25.333Z,13.48
2019-05-23T23:28:33.265Z,13.42
2019-05-23T23:30:42.443Z,13.34
2019-05-23T23:32:50.115Z,13.40
2019-05-23T23:34:57.495Z,13.31
2019-05-23T23:37:05.071Z,13.41
2019-05-23T23:39:12.538Z,13.38
2019-05-23T23:41:19.974Z,13.35
2019-05-23T23:43:27.437Z,13.33
2019-05-23T23:45:52.311Z,13.22
2019-05-23T23:48:17.514Z,13.10
2019-05-23T23:50:42.544Z,13.25
2019-05-23T23:53:07.476Z,13.20
2019-05-23T23:55:32.458Z,13.14
2019-05-23T23:57:58.102Z,13.21
